ARG1516 SASA-SACO
Flight info
| Callsign | ARG1516 |
|---|---|
| Flight time | 1h 6m |
| Altitude | FL370 |
| Route | PONPI UN525 DONKA |
| Aircraft | B738/M-S/N |
Departure
| Time | 2026-04-22 00:37 |
|---|---|
| Airport | Martín Miguel de Güemes International Airport (SASA) |
Arrival
| Time | 2026-04-22 01:43 |
|---|---|
| Airport | Ingeniero Aeronáutico Ambrosio L.V. Taravella International Airport (SACO) |
| Time | Latitude | Longitude | Altitude | Speed | Heading |
|---|---|---|---|---|---|
| 2026-04-22 00:13 | -24.84474 | -65.47900 | 4016 ft | 0 kts | 22° |
| 2026-04-22 00:23 | -24.84479 | -65.47902 | 4040 ft | 2 kts | 25° |
| 2026-04-22 00:23 | -24.84493 | -65.47913 | 4043 ft | 3 kts | 61° |
| 2026-04-22 00:23 | -24.84496 | -65.47939 | 4044 ft | 3 kts | 107° |
| 2026-04-22 00:24 | -24.84494 | -65.47947 | 4044 ft | 0 kts | 112° |
| 2026-04-22 00:27 | -24.84495 | -65.47946 | 4044 ft | 1 kts | 118° |
| 2026-04-22 00:27 | -24.84503 | -65.47947 | 4044 ft | 1 kts | 202° |
| 2026-04-22 00:27 | -24.84505 | -65.47954 | 4043 ft | 3 kts | 249° |
| 2026-04-22 00:27 | -24.84523 | -65.48035 | 4043 ft | 9 kts | 250° |
| 2026-04-22 00:28 | -24.84545 | -65.48106 | 4046 ft | 12 kts | 252° |
| 2026-04-22 00:28 | -24.84560 | -65.48165 | 4046 ft | 12 kts | 253° |
| 2026-04-22 00:28 | -24.84593 | -65.48281 | 4044 ft | 12 kts | 252° |
| 2026-04-22 00:28 | -24.84637 | -65.48354 | 4042 ft | 11 kts | 228° |
| 2026-04-22 00:29 | -24.84694 | -65.48411 | 4044 ft | 11 kts | 218° |
| 2026-04-22 00:29 | -24.84764 | -65.48446 | 4047 ft | 12 kts | 193° |
| 2026-04-22 00:29 | -24.84817 | -65.48459 | 4046 ft | 12 kts | 193° |
| 2026-04-22 00:29 | -24.84924 | -65.48486 | 4045 ft | 14 kts | 192° |
| 2026-04-22 00:30 | -24.85032 | -65.48508 | 4043 ft | 18 kts | 189° |
| 2026-04-22 00:30 | -24.85152 | -65.48530 | 4040 ft | 17 kts | 189° |
| 2026-04-22 00:30 | -24.85267 | -65.48552 | 4042 ft | 17 kts | 190° |
| 2026-04-22 00:30 | -24.85377 | -65.48576 | 4045 ft | 16 kts | 192° |
| 2026-04-22 00:31 | -24.85482 | -65.48602 | 4045 ft | 15 kts | 192° |
| 2026-04-22 00:31 | -24.85584 | -65.48627 | 4047 ft | 15 kts | 193° |
| 2026-04-22 00:31 | -24.85684 | -65.48648 | 4046 ft | 15 kts | 190° |
| 2026-04-22 00:31 | -24.85789 | -65.48665 | 4044 ft | 15 kts | 188° |
| 2026-04-22 00:32 | -24.85893 | -65.48684 | 4045 ft | 15 kts | 190° |
| 2026-04-22 00:32 | -24.85993 | -65.48707 | 4045 ft | 15 kts | 192° |
| 2026-04-22 00:32 | -24.86102 | -65.48732 | 4045 ft | 18 kts | 190° |
| 2026-04-22 00:32 | -24.86228 | -65.48759 | 4045 ft | 18 kts | 191° |
| 2026-04-22 00:33 | -24.86360 | -65.48788 | 4034 ft | 20 kts | 191° |
| 2026-04-22 00:33 | -24.86500 | -65.48819 | 4030 ft | 21 kts | 191° |
| 2026-04-22 00:33 | -24.86639 | -65.48849 | 4025 ft | 20 kts | 191° |
| 2026-04-22 00:33 | -24.86774 | -65.48878 | 4037 ft | 19 kts | 189° |
| 2026-04-22 00:34 | -24.86906 | -65.48888 | 4035 ft | 19 kts | 170° |
| 2026-04-22 00:34 | -24.87030 | -65.48850 | 4046 ft | 18 kts | 163° |
| 2026-04-22 00:34 | -24.87148 | -65.48808 | 4044 ft | 18 kts | 164° |
| 2026-04-22 00:34 | -24.87245 | -65.48794 | 4045 ft | 7 kts | 191° |
| 2026-04-22 00:35 | -24.87288 | -65.48821 | 4046 ft | 7 kts | 227° |
| 2026-04-22 00:35 | -24.87305 | -65.48871 | 4044 ft | 7 kts | 266° |
| 2026-04-22 00:35 | -24.87293 | -65.48921 | 4046 ft | 7 kts | 300° |
| 2026-04-22 00:35 | -24.87258 | -65.48956 | 4046 ft | 7 kts | 329° |
| 2026-04-22 00:36 | -24.87199 | -65.48965 | 4042 ft | 23 kts | 5° |
| 2026-04-22 00:36 | -24.86793 | -65.48880 | 4028 ft | 95 kts | 11° |
| 2026-04-22 00:36 | -24.85943 | -65.48698 | 4047 ft | 152 kts | 10° |
| 2026-04-22 00:36 | -24.84787 | -65.48456 | 4384 ft | 167 kts | 11° |
| 2026-04-22 00:37 | -24.83736 | -65.48226 | 5457 ft | 143 kts | 12° |
| 2026-04-22 00:37 | -24.82808 | -65.48010 | 6262 ft | 132 kts | 12° |
| 2026-04-22 00:37 | -24.82219 | -65.47876 | 6647 ft | 130 kts | 12° |
| 2026-04-22 00:37 | -24.81276 | -65.47662 | 6961 ft | 145 kts | 12° |
| 2026-04-22 00:38 | -24.79923 | -65.47360 | 7632 ft | 152 kts | 12° |
| 2026-04-22 00:38 | -24.78884 | -65.47129 | 8187 ft | 154 kts | 12° |
| 2026-04-22 00:38 | -24.78187 | -65.46960 | 8556 ft | 154 kts | 18° |
| 2026-04-22 00:38 | -24.76982 | -65.46132 | 9308 ft | 154 kts | 38° |
| 2026-04-22 00:39 | -24.76266 | -65.45251 | 9852 ft | 156 kts | 57° |
| 2026-04-22 00:39 | -24.75933 | -65.44542 | 10184 ft | 157 kts | 65° |
| 2026-04-22 00:39 | -24.75560 | -65.42987 | 10751 ft | 160 kts | 84° |
| 2026-04-22 00:39 | -24.75712 | -65.41766 | 11146 ft | 163 kts | 101° |
| 2026-04-22 00:40 | -24.75937 | -65.40537 | 11472 ft | 173 kts | 98° |
| 2026-04-22 00:40 | -24.76191 | -65.39094 | 11439 ft | 209 kts | 98° |
| 2026-04-22 00:40 | -24.76386 | -65.38018 | 11553 ft | 222 kts | 99° |
| 2026-04-22 00:40 | -24.76826 | -65.35666 | 11785 ft | 248 kts | 100° |
| 2026-04-22 00:41 | -24.77351 | -65.33816 | 12119 ft | 266 kts | 119° |
| 2026-04-22 00:41 | -24.78729 | -65.32347 | 12274 ft | 293 kts | 153° |
| 2026-04-22 00:41 | -24.80771 | -65.31813 | 12449 ft | 316 kts | 177° |
| 2026-04-22 00:41 | -24.83039 | -65.31810 | 12645 ft | 338 kts | 182° |
| 2026-04-22 00:42 | -24.84637 | -65.31875 | 12754 ft | 352 kts | 183° |
| 2026-04-22 00:42 | -24.87961 | -65.31998 | 13424 ft | 363 kts | 182° |
| 2026-04-22 00:42 | -24.90482 | -65.32045 | 14154 ft | 363 kts | 182° |
| 2026-04-22 00:42 | -24.93010 | -65.32060 | 14774 ft | 366 kts | 181° |
| 2026-04-22 00:43 | -24.95561 | -65.32055 | 15381 ft | 369 kts | 181° |
| 2026-04-22 00:43 | -24.98135 | -65.32040 | 16009 ft | 372 kts | 181° |
| 2026-04-22 00:43 | -25.00726 | -65.32022 | 16645 ft | 375 kts | 182° |
| 2026-04-22 00:43 | -25.03341 | -65.32004 | 17261 ft | 378 kts | 182° |
| 2026-04-22 00:44 | -25.05982 | -65.31986 | 17883 ft | 382 kts | 182° |
| 2026-04-22 00:44 | -25.08640 | -65.31969 | 18502 ft | 385 kts | 183° |
| 2026-04-22 00:44 | -25.11321 | -65.31951 | 19039 ft | 388 kts | 183° |
| 2026-04-22 00:44 | -25.13122 | -65.31939 | 19373 ft | 390 kts | 183° |
| 2026-04-22 00:45 | -25.16761 | -65.31914 | 20064 ft | 395 kts | 184° |
| 2026-04-22 00:45 | -25.19520 | -65.31895 | 20582 ft | 399 kts | 184° |
| 2026-04-22 00:45 | -25.22301 | -65.31876 | 21088 ft | 403 kts | 184° |
| 2026-04-22 00:45 | -25.25111 | -65.31857 | 21588 ft | 407 kts | 184° |
| 2026-04-22 00:46 | -25.27000 | -65.31844 | 21917 ft | 409 kts | 184° |
| 2026-04-22 00:46 | -25.30809 | -65.31817 | 22580 ft | 414 kts | 184° |
| 2026-04-22 00:46 | -25.33691 | -65.31797 | 23076 ft | 416 kts | 185° |
| 2026-04-22 00:46 | -25.36595 | -65.31777 | 23536 ft | 420 kts | 185° |
| 2026-04-22 00:47 | -25.39530 | -65.31757 | 23875 ft | 425 kts | 185° |
| 2026-04-22 00:47 | -25.42496 | -65.31737 | 24224 ft | 429 kts | 185° |
| 2026-04-22 00:47 | -25.44487 | -65.31723 | 24500 ft | 430 kts | 185° |
| 2026-04-22 00:47 | -25.48479 | -65.31693 | 25059 ft | 433 kts | 185° |
| 2026-04-22 00:48 | -25.51499 | -65.31672 | 25426 ft | 437 kts | 185° |
| 2026-04-22 00:48 | -25.54547 | -65.31651 | 25762 ft | 441 kts | 186° |
| 2026-04-22 00:48 | -25.56592 | -65.31635 | 25998 ft | 442 kts | 186° |
| 2026-04-22 00:48 | -25.59668 | -65.31613 | 26342 ft | 444 kts | 186° |
| 2026-04-22 00:49 | -25.63807 | -65.31586 | 26755 ft | 450 kts | 186° |
| 2026-04-22 00:49 | -25.65899 | -65.31571 | 26986 ft | 452 kts | 186° |
| 2026-04-22 00:49 | -25.70092 | -65.31541 | 27422 ft | 455 kts | 186° |
| 2026-04-22 00:49 | -25.73267 | -65.31518 | 27740 ft | 458 kts | 186° |
| 2026-04-22 00:50 | -25.75390 | -65.31497 | 27964 ft | 460 kts | 185° |
| 2026-04-22 00:50 | -25.79686 | -65.31008 | 28358 ft | 472 kts | 177° |
| 2026-04-22 00:50 | -25.82934 | -65.30390 | 28650 ft | 477 kts | 175° |
| 2026-04-22 00:50 | -25.86201 | -65.29700 | 28935 ft | 481 kts | 175° |
| 2026-04-22 00:51 | -25.88392 | -65.29232 | 29102 ft | 483 kts | 175° |
| 2026-04-22 00:51 | -25.92794 | -65.28314 | 29493 ft | 485 kts | 176° |
| 2026-04-22 00:51 | -25.96117 | -65.27649 | 29757 ft | 488 kts | 176° |
| 2026-04-22 00:51 | -25.99459 | -65.27001 | 30000 ft | 491 kts | 177° |
| 2026-04-22 00:52 | -26.02827 | -65.26360 | 30230 ft | 493 kts | 177° |
| 2026-04-22 00:52 | -26.06214 | -65.25722 | 30450 ft | 495 kts | 177° |
| 2026-04-22 00:52 | -26.08479 | -65.25296 | 30612 ft | 497 kts | 177° |
| 2026-04-22 00:52 | -26.11883 | -65.24655 | 30858 ft | 498 kts | 177° |
| 2026-04-22 00:53 | -26.15298 | -65.24010 | 31092 ft | 500 kts | 177° |
| 2026-04-22 00:53 | -26.19871 | -65.23146 | 31387 ft | 503 kts | 177° |
| 2026-04-22 00:53 | -26.22173 | -65.22710 | 31540 ft | 504 kts | 177° |
| 2026-04-22 00:53 | -26.26769 | -65.21837 | 31898 ft | 504 kts | 177° |
| 2026-04-22 00:54 | -26.30218 | -65.21180 | 32249 ft | 503 kts | 177° |
| 2026-04-22 00:54 | -26.33660 | -65.20525 | 32599 ft | 502 kts | 177° |
| 2026-04-22 00:54 | -26.35944 | -65.20090 | 32812 ft | 502 kts | 177° |
| 2026-04-22 00:54 | -26.39381 | -65.19436 | 33105 ft | 502 kts | 177° |
| 2026-04-22 00:55 | -26.43956 | -65.18566 | 33536 ft | 501 kts | 177° |
| 2026-04-22 00:55 | -26.46245 | -65.18130 | 33764 ft | 501 kts | 177° |
| 2026-04-22 00:55 | -26.54238 | -65.16607 | 34470 ft | 500 kts | 178° |
| 2026-04-22 00:56 | -26.56519 | -65.16172 | 34644 ft | 500 kts | 178° |
| 2026-04-22 00:56 | -26.59943 | -65.15518 | 34908 ft | 500 kts | 178° |
| 2026-04-22 00:56 | -26.63359 | -65.14866 | 35199 ft | 499 kts | 178° |
| 2026-04-22 00:56 | -26.66770 | -65.14213 | 35490 ft | 497 kts | 178° |
| 2026-04-22 00:57 | -26.70167 | -65.13564 | 35763 ft | 497 kts | 178° |
| 2026-04-22 00:57 | -26.74699 | -65.12697 | 36078 ft | 497 kts | 178° |
| 2026-04-22 00:57 | -26.78103 | -65.12046 | 36345 ft | 496 kts | 178° |
| 2026-04-22 00:57 | -26.81490 | -65.11396 | 36651 ft | 494 kts | 178° |
| 2026-04-22 00:58 | -26.84870 | -65.10748 | 36933 ft | 493 kts | 178° |
| 2026-04-22 00:58 | -26.88248 | -65.10097 | 37136 ft | 494 kts | 178° |
| 2026-04-22 00:58 | -26.95046 | -65.08786 | 37134 ft | 498 kts | 178° |
| 2026-04-22 00:59 | -27.00698 | -65.07686 | 37127 ft | 493 kts | 178° |
| 2026-04-22 00:59 | -27.08546 | -65.06159 | 37138 ft | 490 kts | 179° |
| 2026-04-22 01:00 | -27.15238 | -65.04860 | 37142 ft | 489 kts | 179° |
| 2026-04-22 01:00 | -27.21926 | -65.03561 | 37140 ft | 489 kts | 179° |
| 2026-04-22 01:01 | -27.28618 | -65.02259 | 37136 ft | 489 kts | 179° |
| 2026-04-22 01:01 | -27.35313 | -65.00954 | 37138 ft | 490 kts | 179° |
| 2026-04-22 01:02 | -27.40908 | -64.99863 | 37134 ft | 491 kts | 179° |
| 2026-04-22 01:02 | -27.47641 | -64.98547 | 37138 ft | 493 kts | 179° |
| 2026-04-22 01:03 | -27.54396 | -64.97225 | 37143 ft | 495 kts | 179° |
| 2026-04-22 01:03 | -27.62308 | -64.95674 | 37140 ft | 497 kts | 179° |
| 2026-04-22 01:04 | -27.67978 | -64.94561 | 37148 ft | 498 kts | 179° |
| 2026-04-22 01:04 | -27.74796 | -64.93222 | 37128 ft | 499 kts | 179° |
| 2026-04-22 01:05 | -27.81617 | -64.91936 | 37133 ft | 497 kts | 180° |
| 2026-04-22 01:05 | -27.89567 | -64.90489 | 37133 ft | 497 kts | 180° |
| 2026-04-22 01:06 | -27.96382 | -64.89241 | 37143 ft | 497 kts | 180° |
| 2026-04-22 01:06 | -28.02051 | -64.88195 | 37142 ft | 496 kts | 180° |
| 2026-04-22 01:07 | -28.08853 | -64.86935 | 37138 ft | 496 kts | 180° |
| 2026-04-22 01:07 | -28.15641 | -64.85677 | 37140 ft | 495 kts | 180° |
| 2026-04-22 01:08 | -28.22430 | -64.84417 | 37134 ft | 495 kts | 181° |
| 2026-04-22 01:08 | -28.29205 | -64.83156 | 37142 ft | 494 kts | 181° |
| 2026-04-22 01:09 | -28.35975 | -64.81898 | 37131 ft | 494 kts | 181° |
| 2026-04-22 01:09 | -28.43865 | -64.80430 | 37130 ft | 493 kts | 181° |
| 2026-04-22 01:10 | -28.49491 | -64.79381 | 37132 ft | 492 kts | 181° |
| 2026-04-22 01:10 | -28.56233 | -64.78122 | 37127 ft | 492 kts | 181° |
| 2026-04-22 01:11 | -28.62973 | -64.76862 | 37098 ft | 492 kts | 181° |
| 2026-04-22 01:11 | -28.66370 | -64.76199 | 36596 ft | 499 kts | 180° |
| 2026-04-22 01:11 | -28.70905 | -64.75231 | 35867 ft | 498 kts | 179° |
| 2026-04-22 01:12 | -28.73172 | -64.74730 | 35453 ft | 499 kts | 179° |
| 2026-04-22 01:12 | -28.76582 | -64.73974 | 34796 ft | 501 kts | 179° |
| 2026-04-22 01:12 | -28.79994 | -64.73219 | 34277 ft | 499 kts | 179° |
| 2026-04-22 01:12 | -28.83389 | -64.72471 | 33733 ft | 497 kts | 179° |
| 2026-04-22 01:13 | -28.86760 | -64.71732 | 33242 ft | 493 kts | 179° |
| 2026-04-22 01:13 | -28.90110 | -64.71002 | 32779 ft | 488 kts | 179° |
| 2026-04-22 01:13 | -28.94524 | -64.70044 | 32164 ft | 483 kts | 179° |
| 2026-04-22 01:13 | -28.97812 | -64.69332 | 31709 ft | 479 kts | 179° |
| 2026-04-22 01:14 | -28.99984 | -64.68862 | 31412 ft | 477 kts | 179° |
| 2026-04-22 01:14 | -29.03225 | -64.68160 | 30964 ft | 473 kts | 179° |
| 2026-04-22 01:14 | -29.07513 | -64.67231 | 30352 ft | 470 kts | 179° |
| 2026-04-22 01:14 | -29.09642 | -64.66769 | 30036 ft | 467 kts | 179° |
| 2026-04-22 01:15 | -29.12819 | -64.66079 | 29519 ft | 463 kts | 179° |
| 2026-04-22 01:15 | -29.15964 | -64.65394 | 29031 ft | 459 kts | 178° |
| 2026-04-22 01:15 | -29.20102 | -64.64492 | 28430 ft | 452 kts | 178° |
| 2026-04-22 01:15 | -29.23168 | -64.63824 | 27976 ft | 447 kts | 178° |
| 2026-04-22 01:16 | -29.25196 | -64.63382 | 27669 ft | 444 kts | 178° |
| 2026-04-22 01:16 | -29.28214 | -64.62725 | 27221 ft | 440 kts | 178° |
| 2026-04-22 01:16 | -29.32192 | -64.61858 | 26636 ft | 434 kts | 177° |
| 2026-04-22 01:16 | -29.35140 | -64.61215 | 26207 ft | 430 kts | 177° |
| 2026-04-22 01:17 | -29.38061 | -64.60578 | 25779 ft | 426 kts | 176° |
| 2026-04-22 01:17 | -29.39994 | -64.60156 | 25492 ft | 424 kts | 176° |
| 2026-04-22 01:17 | -29.42872 | -64.59527 | 25061 ft | 420 kts | 176° |
| 2026-04-22 01:17 | -29.45732 | -64.58902 | 24644 ft | 417 kts | 176° |
| 2026-04-22 01:18 | -29.48564 | -64.58283 | 24227 ft | 414 kts | 175° |
| 2026-04-22 01:18 | -29.51378 | -64.57668 | 23786 ft | 412 kts | 175° |
| 2026-04-22 01:18 | -29.54177 | -64.57055 | 23305 ft | 408 kts | 175° |
| 2026-04-22 01:18 | -29.56948 | -64.56447 | 22846 ft | 405 kts | 175° |
| 2026-04-22 01:19 | -29.59691 | -64.55844 | 22412 ft | 400 kts | 175° |
| 2026-04-22 01:19 | -29.62400 | -64.55287 | 22123 ft | 392 kts | 176° |
| 2026-04-22 01:19 | -29.65927 | -64.54621 | 21782 ft | 381 kts | 177° |
| 2026-04-22 01:19 | -29.67660 | -64.54303 | 21608 ft | 378 kts | 177° |
| 2026-04-22 01:20 | -29.70233 | -64.53829 | 21366 ft | 372 kts | 177° |
| 2026-04-22 01:20 | -29.72776 | -64.53359 | 21075 ft | 369 kts | 177° |
| 2026-04-22 01:20 | -29.75297 | -64.52889 | 20702 ft | 367 kts | 177° |
| 2026-04-22 01:20 | -29.77807 | -64.52419 | 20315 ft | 365 kts | 176° |
| 2026-04-22 01:21 | -29.81132 | -64.51793 | 19793 ft | 363 kts | 176° |
| 2026-04-22 01:21 | -29.82793 | -64.51479 | 19527 ft | 362 kts | 176° |
| 2026-04-22 01:21 | -29.85271 | -64.51010 | 19140 ft | 361 kts | 176° |
| 2026-04-22 01:21 | -29.88565 | -64.50387 | 18600 ft | 360 kts | 176° |
| 2026-04-22 01:22 | -29.90207 | -64.50076 | 18309 ft | 360 kts | 176° |
| 2026-04-22 01:22 | -29.92666 | -64.49610 | 17860 ft | 358 kts | 176° |
| 2026-04-22 01:22 | -29.95115 | -64.49140 | 17484 ft | 356 kts | 175° |
| 2026-04-22 01:22 | -29.97524 | -64.48639 | 17146 ft | 352 kts | 174° |
| 2026-04-22 01:23 | -29.99922 | -64.48122 | 16759 ft | 350 kts | 174° |
| 2026-04-22 01:23 | -30.02301 | -64.47605 | 16377 ft | 347 kts | 174° |
| 2026-04-22 01:23 | -30.05451 | -64.46923 | 15862 ft | 345 kts | 174° |
| 2026-04-22 01:23 | -30.07018 | -64.46585 | 15606 ft | 344 kts | 174° |
| 2026-04-22 01:24 | -30.09358 | -64.46081 | 15224 ft | 342 kts | 174° |
| 2026-04-22 01:24 | -30.11688 | -64.45581 | 14840 ft | 341 kts | 174° |
| 2026-04-22 01:24 | -30.14012 | -64.45083 | 14458 ft | 340 kts | 173° |
| 2026-04-22 01:24 | -30.16327 | -64.44586 | 14063 ft | 339 kts | 173° |
| 2026-04-22 01:25 | -30.19406 | -64.43926 | 13502 ft | 337 kts | 173° |
| 2026-04-22 01:25 | -30.20940 | -64.43596 | 13233 ft | 336 kts | 173° |
| 2026-04-22 01:25 | -30.23227 | -64.43105 | 12835 ft | 334 kts | 173° |
| 2026-04-22 01:25 | -30.25499 | -64.42617 | 12450 ft | 332 kts | 172° |
| 2026-04-22 01:26 | -30.27759 | -64.42131 | 12073 ft | 330 kts | 172° |
| 2026-04-22 01:26 | -30.30005 | -64.41647 | 11697 ft | 328 kts | 172° |
| 2026-04-22 01:26 | -30.32235 | -64.41168 | 11322 ft | 326 kts | 172° |
| 2026-04-22 01:26 | -30.34453 | -64.40690 | 10948 ft | 322 kts | 171° |
| 2026-04-22 01:27 | -30.36618 | -64.40223 | 10623 ft | 311 kts | 171° |
| 2026-04-22 01:27 | -30.38690 | -64.39775 | 10390 ft | 298 kts | 171° |
| 2026-04-22 01:27 | -30.40659 | -64.39266 | 10217 ft | 285 kts | 160° |
| 2026-04-22 01:27 | -30.42312 | -64.38121 | 10109 ft | 271 kts | 144° |
| 2026-04-22 01:28 | -30.43774 | -64.36821 | 9957 ft | 261 kts | 143° |
| 2026-04-22 01:28 | -30.45206 | -64.35527 | 9687 ft | 261 kts | 143° |
| 2026-04-22 01:28 | -30.46636 | -64.34237 | 9422 ft | 261 kts | 143° |
| 2026-04-22 01:28 | -30.48065 | -64.32953 | 9155 ft | 260 kts | 143° |
| 2026-04-22 01:29 | -30.49490 | -64.31676 | 8887 ft | 259 kts | 143° |
| 2026-04-22 01:29 | -30.50917 | -64.30401 | 8614 ft | 259 kts | 143° |
| 2026-04-22 01:29 | -30.52339 | -64.29131 | 8350 ft | 259 kts | 143° |
| 2026-04-22 01:29 | -30.53761 | -64.27863 | 8087 ft | 258 kts | 143° |
| 2026-04-22 01:30 | -30.55180 | -64.26598 | 7822 ft | 258 kts | 143° |
| 2026-04-22 01:30 | -30.56598 | -64.25334 | 7557 ft | 257 kts | 143° |
| 2026-04-22 01:30 | -30.58015 | -64.24070 | 7294 ft | 257 kts | 143° |
| 2026-04-22 01:30 | -30.59501 | -64.22951 | 7043 ft | 254 kts | 162° |
| 2026-04-22 01:31 | -30.61182 | -64.22581 | 7004 ft | 243 kts | 177° |
| 2026-04-22 01:31 | -30.63423 | -64.22478 | 6926 ft | 242 kts | 181° |
| 2026-04-22 01:31 | -30.64548 | -64.22455 | 6895 ft | 243 kts | 181° |
| 2026-04-22 01:31 | -30.66249 | -64.22421 | 6853 ft | 247 kts | 181° |
| 2026-04-22 01:32 | -30.68550 | -64.22367 | 6791 ft | 249 kts | 180° |
| 2026-04-22 01:32 | -30.69700 | -64.22336 | 6759 ft | 249 kts | 180° |
| 2026-04-22 01:32 | -30.71430 | -64.22286 | 6713 ft | 249 kts | 180° |
| 2026-04-22 01:32 | -30.73154 | -64.22232 | 6668 ft | 248 kts | 180° |
| 2026-04-22 01:33 | -30.74879 | -64.22173 | 6616 ft | 249 kts | 178° |
| 2026-04-22 01:33 | -30.76595 | -64.21962 | 6570 ft | 249 kts | 175° |
| 2026-04-22 01:33 | -30.78316 | -64.21781 | 6534 ft | 248 kts | 178° |
| 2026-04-22 01:33 | -30.80615 | -64.21668 | 6481 ft | 249 kts | 180° |
| 2026-04-22 01:34 | -30.81774 | -64.21639 | 6442 ft | 250 kts | 181° |
| 2026-04-22 01:34 | -30.83510 | -64.21606 | 6386 ft | 250 kts | 181° |
| 2026-04-22 01:34 | -30.85245 | -64.21577 | 6345 ft | 249 kts | 181° |
| 2026-04-22 01:34 | -30.86973 | -64.21550 | 6300 ft | 249 kts | 181° |
| 2026-04-22 01:35 | -30.88706 | -64.21522 | 6256 ft | 249 kts | 181° |
| 2026-04-22 01:35 | -30.90418 | -64.21495 | 6205 ft | 243 kts | 181° |
| 2026-04-22 01:35 | -30.92072 | -64.21467 | 6134 ft | 234 kts | 181° |
| 2026-04-22 01:35 | -30.94173 | -64.21432 | 6080 ft | 221 kts | 181° |
| 2026-04-22 01:36 | -30.95195 | -64.21416 | 6062 ft | 220 kts | 181° |
| 2026-04-22 01:36 | -30.96728 | -64.21392 | 6040 ft | 222 kts | 181° |
| 2026-04-22 01:36 | -30.98288 | -64.21368 | 5981 ft | 228 kts | 181° |
| 2026-04-22 01:36 | -30.99890 | -64.21342 | 5837 ft | 232 kts | 180° |
| 2026-04-22 01:37 | -31.01487 | -64.21315 | 5693 ft | 228 kts | 180° |
| 2026-04-22 01:37 | -31.03569 | -64.21281 | 5464 ft | 224 kts | 180° |
| 2026-04-22 01:37 | -31.04606 | -64.21264 | 5380 ft | 220 kts | 180° |
| 2026-04-22 01:37 | -31.06116 | -64.21240 | 5232 ft | 214 kts | 180° |
| 2026-04-22 01:38 | -31.07565 | -64.21216 | 5075 ft | 203 kts | 180° |
| 2026-04-22 01:38 | -31.08950 | -64.21193 | 4932 ft | 197 kts | 180° |
| 2026-04-22 01:38 | -31.10748 | -64.21164 | 4717 ft | 191 kts | 180° |
| 2026-04-22 01:38 | -31.11629 | -64.21150 | 4620 ft | 189 kts | 180° |
| 2026-04-22 01:39 | -31.12923 | -64.21129 | 4484 ft | 183 kts | 180° |
| 2026-04-22 01:39 | -31.14185 | -64.21109 | 4359 ft | 182 kts | 180° |
| 2026-04-22 01:39 | -31.15451 | -64.21088 | 4218 ft | 183 kts | 180° |
| 2026-04-22 01:39 | -31.16713 | -64.21068 | 4066 ft | 181 kts | 179° |
| 2026-04-22 01:40 | -31.17948 | -64.21048 | 3906 ft | 172 kts | 179° |
| 2026-04-22 01:40 | -31.19087 | -64.21028 | 3744 ft | 155 kts | 179° |
| 2026-04-22 01:40 | -31.20499 | -64.20998 | 3279 ft | 153 kts | 178° |
| 2026-04-22 01:40 | -31.21193 | -64.20977 | 3097 ft | 145 kts | 179° |
| 2026-04-22 01:41 | -31.22130 | -64.20970 | 2931 ft | 129 kts | 179° |
| 2026-04-22 01:41 | -31.23016 | -64.20976 | 2719 ft | 126 kts | 179° |
| 2026-04-22 01:41 | -31.24184 | -64.20942 | 2520 ft | 126 kts | 178° |
| 2026-04-22 01:41 | -31.24769 | -64.20936 | 2432 ft | 126 kts | 179° |
| 2026-04-22 01:42 | -31.25650 | -64.20942 | 2316 ft | 127 kts | 179° |
| 2026-04-22 01:42 | -31.26830 | -64.20906 | 2114 ft | 128 kts | 177° |
| 2026-04-22 01:42 | -31.27426 | -64.20895 | 1999 ft | 129 kts | 178° |
| 2026-04-22 01:42 | -31.28320 | -64.20881 | 1866 ft | 128 kts | 178° |
| 2026-04-22 01:43 | -31.29508 | -64.20856 | 1678 ft | 129 kts | 177° |
| 2026-04-22 01:43 | -31.30091 | -64.20848 | 1629 ft | 119 kts | 175° |
| 2026-04-22 01:43 | -31.30821 | -64.20831 | 1616 ft | 93 kts | 180° |
| 2026-04-22 01:43 | -31.31359 | -64.20829 | 1615 ft | 26 kts | 181° |
| 2026-04-22 01:44 | -31.31446 | -64.20856 | 1615 ft | 12 kts | 223° |
| 2026-04-22 01:44 | -31.31470 | -64.20968 | 1612 ft | 10 kts | 269° |
| 2026-04-22 01:44 | -31.31471 | -64.21020 | 1612 ft | 3 kts | 266° |
| 2026-04-22 01:44 | -31.31478 | -64.21063 | 1618 ft | 8 kts | 244° |
| 2026-04-22 01:45 | -31.31531 | -64.21081 | 1615 ft | 8 kts | 187° |
| 2026-04-22 01:45 | -31.31583 | -64.21099 | 1612 ft | 8 kts | 188° |
| 2026-04-22 01:45 | -31.31633 | -64.21101 | 1615 ft | 5 kts | 182° |
| 2026-04-22 01:45 | -31.31655 | -64.21149 | 1612 ft | 6 kts | 266° |
| 2026-04-22 01:46 | -31.31655 | -64.21169 | 1612 ft | 2 kts | 268° |